sensor_id;sensor_type;location;lat;lon;timestamp;P1;durP1;ratioP1;P2;durP2;ratioP2
3726;SDS011;1879;45.876;12.300;2023-01-28T00:01:20;21.90;;;17.90;;
3726;SDS011;1879;45.876;12.300;2023-01-28T00:03:49;18.60;;;16.70;;
3726;SDS011;1879;45.876;12.300;2023-01-28T00:06:17;21.27;;;18.03;;
3726;SDS011;1879;45.876;12.300;2023-01-28T00:08:44;22.17;;;19.10;;
3726;SDS011;1879;45.876;12.300;2023-01-28T00:11:11;19.83;;;17.83;;
3726;SDS011;1879;45.876;12.300;2023-01-28T00:13:39;26.17;;;21.90;;
3726;SDS011;1879;45.876;12.300;2023-01-28T00:16:07;22.93;;;19.70;;
3726;SDS011;1879;45.876;12.300;2023-01-28T00:18:34;22.40;;;19.70;;
3726;SDS011;1879;45.876;12.300;2023-01-28T00:21:04;21.77;;;18.80;;
3726;SDS011;1879;45.876;12.300;2023-01-28T00:23:33;24.97;;;19.60;;
3726;SDS011;1879;45.876;12.300;2023-01-28T00:26:02;30.07;;;20.17;;
3726;SDS011;1879;45.876;12.300;2023-01-28T00:28:30;23.90;;;19.10;;
3726;SDS011;1879;45.876;12.300;2023-01-28T00:30:57;25.17;;;19.70;;
3726;SDS011;1879;45.876;12.300;2023-01-28T00:33:24;25.33;;;19.57;;
3726;SDS011;1879;45.876;12.300;2023-01-28T00:35:56;23.53;;;19.90;;
3726;SDS011;1879;45.876;12.300;2023-01-28T00:38:26;28.80;;;20.20;;
3726;SDS011;1879;45.876;12.300;2023-01-28T00:40:53;21.47;;;18.17;;
3726;SDS011;1879;45.876;12.300;2023-01-28T00:43:20;21.90;;;18.87;;
3726;SDS011;1879;45.876;12.300;2023-01-28T00:45:47;24.20;;;18.33;;
3726;SDS011;1879;45.876;12.300;2023-01-28T00:48:14;23.90;;;19.20;;
3726;SDS011;1879;45.876;12.300;2023-01-28T00:50:41;28.50;;;19.37;;
3726;SDS011;1879;45.876;12.300;2023-01-28T00:53:09;26.37;;;20.60;;
3726;SDS011;1879;45.876;12.300;2023-01-28T00:55:37;23.47;;;18.70;;
3726;SDS011;1879;45.876;12.300;2023-01-28T00:58:04;25.60;;;19.77;;
3726;SDS011;1879;45.876;12.300;2023-01-28T01:00:31;24.03;;;19.57;;
3726;SDS011;1879;45.876;12.300;2023-01-28T01:02:58;22.90;;;18.73;;
3726;SDS011;1879;45.876;12.300;2023-01-28T01:05:25;23.93;;;19.73;;
3726;SDS011;1879;45.876;12.300;2023-01-28T01:07:53;24.87;;;19.30;;
3726;SDS011;1879;45.876;12.300;2023-01-28T01:10:21;20.67;;;18.40;;
3726;SDS011;1879;45.876;12.300;2023-01-28T01:12:50;25.43;;;19.33;;
3726;SDS011;1879;45.876;12.300;2023-01-28T01:15:17;23.80;;;20.10;;
3726;SDS011;1879;45.876;12.300;2023-01-28T01:17:45;23.27;;;20.17;;
3726;SDS011;1879;45.876;12.300;2023-01-28T01:20:15;24.50;;;19.83;;
3726;SDS011;1879;45.876;12.300;2023-01-28T01:22:43;24.07;;;18.17;;
3726;SDS011;1879;45.876;12.300;2023-01-28T01:25:11;23.13;;;19.20;;
3726;SDS011;1879;45.876;12.300;2023-01-28T01:27:39;22.33;;;18.53;;
3726;SDS011;1879;45.876;12.300;2023-01-28T01:30:08;24.90;;;19.67;;
3726;SDS011;1879;45.876;12.300;2023-01-28T01:32:36;23.63;;;19.40;;
3726;SDS011;1879;45.876;12.300;2023-01-28T01:35:03;22.23;;;19.67;;
3726;SDS011;1879;45.876;12.300;2023-01-28T01:37:32;24.43;;;20.40;;
3726;SDS011;1879;45.876;12.300;2023-01-28T01:39:59;24.20;;;19.57;;
3726;SDS011;1879;45.876;12.300;2023-01-28T01:42:29;24.33;;;19.47;;
3726;SDS011;1879;45.876;12.300;2023-01-28T01:44:57;24.20;;;20.10;;
3726;SDS011;1879;45.876;12.300;2023-01-28T01:47:28;22.20;;;19.83;;
3726;SDS011;1879;45.876;12.300;2023-01-28T01:50:01;21.20;;;18.97;;
3726;SDS011;1879;45.876;12.300;2023-01-28T01:52:30;23.00;;;19.87;;
3726;SDS011;1879;45.876;12.300;2023-01-28T01:55:00;23.40;;;20.27;;
3726;SDS011;1879;45.876;12.300;2023-01-28T01:57:31;21.73;;;19.10;;
3726;SDS011;1879;45.876;12.300;2023-01-28T02:00:01;24.93;;;20.30;;
3726;SDS011;1879;45.876;12.300;2023-01-28T02:02:34;22.93;;;19.77;;
3726;SDS011;1879;45.876;12.300;2023-01-28T02:05:05;26.27;;;20.90;;
3726;SDS011;1879;45.876;12.300;2023-01-28T02:07:34;25.50;;;20.80;;
3726;SDS011;1879;45.876;12.300;2023-01-28T02:10:02;25.33;;;20.90;;
3726;SDS011;1879;45.876;12.300;2023-01-28T02:12:31;24.93;;;20.70;;
3726;SDS011;1879;45.876;12.300;2023-01-28T02:15:01;22.67;;;20.30;;
3726;SDS011;1879;45.876;12.300;2023-01-28T02:17:31;23.13;;;20.43;;
3726;SDS011;1879;45.876;12.300;2023-01-28T02:20:02;26.33;;;20.57;;
3726;SDS011;1879;45.876;12.300;2023-01-28T02:22:46;26.40;;;20.57;;
3726;SDS011;1879;45.876;12.300;2023-01-28T02:25:36;21.70;;;19.37;;
3726;SDS011;1879;45.876;12.300;2023-01-28T02:28:15;22.97;;;19.47;;
3726;SDS011;1879;45.876;12.300;2023-01-28T02:30:50;25.43;;;21.60;;
3726;SDS011;1879;45.876;12.300;2023-01-28T02:33:24;24.17;;;20.90;;
3726;SDS011;1879;45.876;12.300;2023-01-28T02:35:56;23.60;;;21.00;;
3726;SDS011;1879;45.876;12.300;2023-01-28T02:38:28;28.17;;;21.30;;
3726;SDS011;1879;45.876;12.300;2023-01-28T02:41:00;25.63;;;21.30;;
3726;SDS011;1879;45.876;12.300;2023-01-28T02:43:34;28.73;;;20.37;;
3726;SDS011;1879;45.876;12.300;2023-01-28T02:49:17;26.50;;;23.60;;
3726;SDS011;1879;45.876;12.300;2023-01-28T02:51:52;26.17;;;21.83;;
3726;SDS011;1879;45.876;12.300;2023-01-28T02:54:36;28.67;;;21.77;;
3726;SDS011;1879;45.876;12.300;2023-01-28T02:57:09;25.37;;;21.73;;
3726;SDS011;1879;45.876;12.300;2023-01-28T02:59:47;24.27;;;21.67;;
3726;SDS011;1879;45.876;12.300;2023-01-28T03:02:18;28.20;;;22.60;;
3726;SDS011;1879;45.876;12.300;2023-01-28T03:04:50;24.90;;;22.23;;
3726;SDS011;1879;45.876;12.300;2023-01-28T03:07:24;27.27;;;23.40;;
3726;SDS011;1879;45.876;12.300;2023-01-28T03:09:54;28.77;;;22.53;;
3726;SDS011;1879;45.876;12.300;2023-01-28T03:12:23;28.60;;;24.03;;
3726;SDS011;1879;45.876;12.300;2023-01-28T03:15:13;25.30;;;21.93;;
3726;SDS011;1879;45.876;12.300;2023-01-28T03:18:00;25.90;;;21.63;;
3726;SDS011;1879;45.876;12.300;2023-01-28T03:20:49;24.63;;;20.97;;
3726;SDS011;1879;45.876;12.300;2023-01-28T03:23:47;26.23;;;20.67;;
3726;SDS011;1879;45.876;12.300;2023-01-28T03:26:37;25.70;;;19.80;;
3726;SDS011;1879;45.876;12.300;2023-01-28T03:29:28;24.63;;;19.90;;
3726;SDS011;1879;45.876;12.300;2023-01-28T03:32:16;23.30;;;20.30;;
3726;SDS011;1879;45.876;12.300;2023-01-28T03:35:02;23.73;;;20.03;;
3726;SDS011;1879;45.876;12.300;2023-01-28T03:37:49;23.77;;;19.27;;
3726;SDS011;1879;45.876;12.300;2023-01-28T03:40:16;26.67;;;20.20;;
3726;SDS011;1879;45.876;12.300;2023-01-28T03:42:44;22.30;;;18.77;;
3726;SDS011;1879;45.876;12.300;2023-01-28T03:45:11;18.47;;;16.43;;
3726;SDS011;1879;45.876;12.300;2023-01-28T03:47:39;21.03;;;16.80;;
3726;SDS011;1879;45.876;12.300;2023-01-28T03:50:07;21.73;;;17.37;;
3726;SDS011;1879;45.876;12.300;2023-01-28T03:52:35;20.20;;;17.30;;
3726;SDS011;1879;45.876;12.300;2023-01-28T03:55:02;19.37;;;17.27;;
3726;SDS011;1879;45.876;12.300;2023-01-28T03:57:37;19.40;;;16.93;;
3726;SDS011;1879;45.876;12.300;2023-01-28T04:00:05;18.17;;;15.83;;
3726;SDS011;1879;45.876;12.300;2023-01-28T04:02:34;19.73;;;16.40;;
3726;SDS011;1879;45.876;12.300;2023-01-28T04:05:06;19.27;;;16.17;;
3726;SDS011;1879;45.876;12.300;2023-01-28T04:07:37;18.53;;;16.50;;
3726;SDS011;1879;45.876;12.300;2023-01-28T04:10:05;18.77;;;15.97;;
3726;SDS011;1879;45.876;12.300;2023-01-28T04:12:33;18.77;;;16.10;;
3726;SDS011;1879;45.876;12.300;2023-01-28T04:15:02;16.63;;;14.73;;
3726;SDS011;1879;45.876;12.300;2023-01-28T04:17:39;18.57;;;16.20;;
3726;SDS011;1879;45.876;12.300;2023-01-28T04:20:11;19.77;;;16.30;;
3726;SDS011;1879;45.876;12.300;2023-01-28T04:22:38;19.50;;;16.43;;
3726;SDS011;1879;45.876;12.300;2023-01-28T04:25:05;23.30;;;18.03;;
3726;SDS011;1879;45.876;12.300;2023-01-28T04:27:33;19.87;;;17.77;;
3726;SDS011;1879;45.876;12.300;2023-01-28T04:30:00;19.70;;;16.37;;
3726;SDS011;1879;45.876;12.300;2023-01-28T04:32:27;19.40;;;16.47;;
3726;SDS011;1879;45.876;12.300;2023-01-28T04:34:54;24.43;;;17.90;;
3726;SDS011;1879;45.876;12.300;2023-01-28T04:37:22;19.23;;;17.23;;
3726;SDS011;1879;45.876;12.300;2023-01-28T04:39:49;22.13;;;18.47;;
3726;SDS011;1879;45.876;12.300;2023-01-28T04:42:16;19.13;;;15.80;;
3726;SDS011;1879;45.876;12.300;2023-01-28T04:44:43;18.03;;;15.10;;
3726;SDS011;1879;45.876;12.300;2023-01-28T04:47:10;19.63;;;15.90;;
3726;SDS011;1879;45.876;12.300;2023-01-28T04:49:37;18.10;;;15.77;;
3726;SDS011;1879;45.876;12.300;2023-01-28T04:52:04;17.40;;;15.30;;
3726;SDS011;1879;45.876;12.300;2023-01-28T04:54:32;17.17;;;15.37;;
3726;SDS011;1879;45.876;12.300;2023-01-28T04:56:59;15.70;;;14.00;;
3726;SDS011;1879;45.876;12.300;2023-01-28T04:59:26;17.30;;;14.40;;
3726;SDS011;1879;45.876;12.300;2023-01-28T05:01:53;16.90;;;13.87;;
3726;SDS011;1879;45.876;12.300;2023-01-28T05:04:19;17.40;;;14.97;;
3726;SDS011;1879;45.876;12.300;2023-01-28T05:06:46;17.60;;;15.27;;
3726;SDS011;1879;45.876;12.300;2023-01-28T05:09:13;16.03;;;14.20;;
3726;SDS011;1879;45.876;12.300;2023-01-28T05:11:42;17.80;;;15.03;;
3726;SDS011;1879;45.876;12.300;2023-01-28T05:14:09;18.60;;;15.03;;
3726;SDS011;1879;45.876;12.300;2023-01-28T05:16:35;15.90;;;14.00;;
3726;SDS011;1879;45.876;12.300;2023-01-28T05:19:02;17.93;;;15.10;;
3726;SDS011;1879;45.876;12.300;2023-01-28T05:21:29;17.43;;;15.07;;
3726;SDS011;1879;45.876;12.300;2023-01-28T05:23:56;16.83;;;14.93;;
3726;SDS011;1879;45.876;12.300;2023-01-28T05:26:23;18.67;;;15.70;;
3726;SDS011;1879;45.876;12.300;2023-01-28T05:28:51;18.53;;;15.80;;
3726;SDS011;1879;45.876;12.300;2023-01-28T05:31:18;20.57;;;16.43;;
3726;SDS011;1879;45.876;12.300;2023-01-28T05:33:45;20.57;;;16.60;;
3726;SDS011;1879;45.876;12.300;2023-01-28T05:36:12;19.13;;;16.10;;
3726;SDS011;1879;45.876;12.300;2023-01-28T05:38:39;19.37;;;15.67;;
3726;SDS011;1879;45.876;12.300;2023-01-28T05:41:06;21.40;;;14.67;;
3726;SDS011;1879;45.876;12.300;2023-01-28T05:43:33;17.07;;;14.20;;
3726;SDS011;1879;45.876;12.300;2023-01-28T05:46:01;19.70;;;16.27;;
3726;SDS011;1879;45.876;12.300;2023-01-28T05:48:28;17.90;;;15.33;;
3726;SDS011;1879;45.876;12.300;2023-01-28T05:50:55;18.97;;;16.97;;
3726;SDS011;1879;45.876;12.300;2023-01-28T05:53:22;21.53;;;17.30;;
3726;SDS011;1879;45.876;12.300;2023-01-28T05:55:49;20.97;;;17.13;;
3726;SDS011;1879;45.876;12.300;2023-01-28T05:58:18;20.07;;;17.00;;
3726;SDS011;1879;45.876;12.300;2023-01-28T06:00:46;20.27;;;16.90;;
3726;SDS011;1879;45.876;12.300;2023-01-28T06:03:14;21.10;;;17.83;;
3726;SDS011;1879;45.876;12.300;2023-01-28T06:05:41;22.53;;;18.33;;
3726;SDS011;1879;45.876;12.300;2023-01-28T06:08:08;19.10;;;16.73;;
3726;SDS011;1879;45.876;12.300;2023-01-28T06:10:35;22.73;;;18.60;;
3726;SDS011;1879;45.876;12.300;2023-01-28T06:13:02;20.80;;;16.40;;
3726;SDS011;1879;45.876;12.300;2023-01-28T06:15:31;21.33;;;16.47;;
3726;SDS011;1879;45.876;12.300;2023-01-28T06:17:58;21.47;;;18.40;;
3726;SDS011;1879;45.876;12.300;2023-01-28T06:20:27;17.97;;;15.30;;
3726;SDS011;1879;45.876;12.300;2023-01-28T06:22:54;18.80;;;16.83;;
3726;SDS011;1879;45.876;12.300;2023-01-28T06:25:21;20.40;;;18.20;;
3726;SDS011;1879;45.876;12.300;2023-01-28T06:27:47;40.13;;;28.80;;
3726;SDS011;1879;45.876;12.300;2023-01-28T06:30:15;31.70;;;22.97;;
3726;SDS011;1879;45.876;12.300;2023-01-28T06:32:42;25.33;;;21.60;;
3726;SDS011;1879;45.876;12.300;2023-01-28T06:35:09;26.03;;;21.87;;
3726;SDS011;1879;45.876;12.300;2023-01-28T06:37:37;26.07;;;22.70;;
3726;SDS011;1879;45.876;12.300;2023-01-28T06:40:06;25.10;;;22.40;;
3726;SDS011;1879;45.876;12.300;2023-01-28T06:42:34;27.67;;;23.03;;
3726;SDS011;1879;45.876;12.300;2023-01-28T06:45:01;30.50;;;24.90;;
3726;SDS011;1879;45.876;12.300;2023-01-28T06:47:28;25.57;;;22.83;;
3726;SDS011;1879;45.876;12.300;2023-01-28T06:49:55;24.00;;;21.37;;
3726;SDS011;1879;45.876;12.300;2023-01-28T06:52:21;30.63;;;23.10;;
3726;SDS011;1879;45.876;12.300;2023-01-28T06:54:50;26.87;;;23.40;;
3726;SDS011;1879;45.876;12.300;2023-01-28T06:57:17;25.90;;;21.20;;
3726;SDS011;1879;45.876;12.300;2023-01-28T06:59:44;26.27;;;20.13;;
3726;SDS011;1879;45.876;12.300;2023-01-28T07:02:10;25.10;;;21.20;;
3726;SDS011;1879;45.876;12.300;2023-01-28T07:04:37;26.30;;;21.50;;
3726;SDS011;1879;45.876;12.300;2023-01-28T07:07:04;26.90;;;22.20;;
3726;SDS011;1879;45.876;12.300;2023-01-28T07:09:31;29.10;;;24.10;;
3726;SDS011;1879;45.876;12.300;2023-01-28T07:11:59;29.33;;;25.90;;
3726;SDS011;1879;45.876;12.300;2023-01-28T07:14:29;33.70;;;25.97;;
3726;SDS011;1879;45.876;12.300;2023-01-28T07:16:56;30.63;;;27.40;;
3726;SDS011;1879;45.876;12.300;2023-01-28T07:19:23;34.63;;;29.40;;
3726;SDS011;1879;45.876;12.300;2023-01-28T07:21:50;37.70;;;30.87;;
3726;SDS011;1879;45.876;12.300;2023-01-28T07:24:17;35.93;;;30.43;;
3726;SDS011;1879;45.876;12.300;2023-01-28T07:26:43;35.70;;;29.97;;
3726;SDS011;1879;45.876;12.300;2023-01-28T07:29:14;36.33;;;29.87;;
3726;SDS011;1879;45.876;12.300;2023-01-28T07:31:41;33.53;;;29.83;;
3726;SDS011;1879;45.876;12.300;2023-01-28T07:34:08;37.63;;;28.40;;
3726;SDS011;1879;45.876;12.300;2023-01-28T07:36:35;41.33;;;32.07;;
3726;SDS011;1879;45.876;12.300;2023-01-28T07:39:02;36.53;;;29.30;;
3726;SDS011;1879;45.876;12.300;2023-01-28T07:41:29;37.67;;;33.50;;
3726;SDS011;1879;45.876;12.300;2023-01-28T07:43:56;37.70;;;31.00;;
3726;SDS011;1879;45.876;12.300;2023-01-28T07:46:24;36.00;;;30.00;;
3726;SDS011;1879;45.876;12.300;2023-01-28T07:48:51;32.47;;;26.47;;
3726;SDS011;1879;45.876;12.300;2023-01-28T07:51:18;21.77;;;18.87;;
3726;SDS011;1879;45.876;12.300;2023-01-28T07:53:45;22.50;;;18.50;;
3726;SDS011;1879;45.876;12.300;2023-01-28T07:56:12;24.90;;;19.53;;
3726;SDS011;1879;45.876;12.300;2023-01-28T07:58:39;25.53;;;19.80;;
3726;SDS011;1879;45.876;12.300;2023-01-28T08:01:05;25.63;;;19.57;;
3726;SDS011;1879;45.876;12.300;2023-01-28T08:03:34;24.80;;;18.97;;
3726;SDS011;1879;45.876;12.300;2023-01-28T08:06:01;22.63;;;18.70;;
3726;SDS011;1879;45.876;12.300;2023-01-28T08:08:28;20.83;;;18.47;;
3726;SDS011;1879;45.876;12.300;2023-01-28T08:10:55;26.00;;;19.33;;
3726;SDS011;1879;45.876;12.300;2023-01-28T08:13:22;23.37;;;20.40;;
3726;SDS011;1879;45.876;12.300;2023-01-28T08:15:48;26.23;;;22.77;;
3726;SDS011;1879;45.876;12.300;2023-01-28T08:18:20;26.37;;;22.90;;
3726;SDS011;1879;45.876;12.300;2023-01-28T08:20:53;29.27;;;23.30;;
3726;SDS011;1879;45.876;12.300;2023-01-28T08:23:20;26.00;;;23.30;;
3726;SDS011;1879;45.876;12.300;2023-01-28T08:25:47;32.90;;;21.27;;
3726;SDS011;1879;45.876;12.300;2023-01-28T08:28:15;23.83;;;19.27;;
3726;SDS011;1879;45.876;12.300;2023-01-28T08:30:42;21.43;;;18.67;;
3726;SDS011;1879;45.876;12.300;2023-01-28T08:33:10;23.37;;;18.07;;
3726;SDS011;1879;45.876;12.300;2023-01-28T08:35:38;22.20;;;19.30;;
3726;SDS011;1879;45.876;12.300;2023-01-28T08:38:07;23.63;;;19.80;;
3726;SDS011;1879;45.876;12.300;2023-01-28T08:40:35;22.33;;;16.80;;
3726;SDS011;1879;45.876;12.300;2023-01-28T08:43:03;22.50;;;18.67;;
3726;SDS011;1879;45.876;12.300;2023-01-28T08:45:30;21.43;;;18.57;;
3726;SDS011;1879;45.876;12.300;2023-01-28T08:47:57;19.83;;;17.00;;
3726;SDS011;1879;45.876;12.300;2023-01-28T08:50:26;25.73;;;17.77;;
3726;SDS011;1879;45.876;12.300;2023-01-28T08:52:57;21.07;;;17.80;;
3726;SDS011;1879;45.876;12.300;2023-01-28T08:55:26;19.27;;;17.00;;
3726;SDS011;1879;45.876;12.300;2023-01-28T08:57:53;22.90;;;18.07;;
3726;SDS011;1879;45.876;12.300;2023-01-28T09:00:21;23.00;;;18.13;;
3726;SDS011;1879;45.876;12.300;2023-01-28T09:02:49;19.80;;;16.60;;
3726;SDS011;1879;45.876;12.300;2023-01-28T09:05:17;21.23;;;18.27;;
3726;SDS011;1879;45.876;12.300;2023-01-28T09:07:44;20.57;;;17.73;;
3726;SDS011;1879;45.876;12.300;2023-01-28T09:10:11;22.37;;;17.80;;
3726;SDS011;1879;45.876;12.300;2023-01-28T09:12:41;23.40;;;19.63;;
3726;SDS011;1879;45.876;12.300;2023-01-28T09:15:09;22.80;;;18.40;;
3726;SDS011;1879;45.876;12.300;2023-01-28T09:17:37;23.70;;;18.83;;
3726;SDS011;1879;45.876;12.300;2023-01-28T09:20:05;21.90;;;18.47;;
3726;SDS011;1879;45.876;12.300;2023-01-28T09:22:32;21.77;;;19.10;;
3726;SDS011;1879;45.876;12.300;2023-01-28T09:25:00;22.90;;;20.37;;
3726;SDS011;1879;45.876;12.300;2023-01-28T09:27:27;35.77;;;21.70;;
3726;SDS011;1879;45.876;12.300;2023-01-28T09:29:55;25.37;;;20.23;;
3726;SDS011;1879;45.876;12.300;2023-01-28T09:32:22;23.43;;;19.50;;
3726;SDS011;1879;45.876;12.300;2023-01-28T09:34:49;25.53;;;21.50;;
3726;SDS011;1879;45.876;12.300;2023-01-28T09:37:16;27.43;;;21.77;;
3726;SDS011;1879;45.876;12.300;2023-01-28T09:39:43;24.50;;;19.50;;
3726;SDS011;1879;45.876;12.300;2023-01-28T09:42:17;23.60;;;20.80;;
3726;SDS011;1879;45.876;12.300;2023-01-28T09:45:04;23.70;;;19.93;;
3726;SDS011;1879;45.876;12.300;2023-01-28T09:47:38;23.37;;;20.60;;
3726;SDS011;1879;45.876;12.300;2023-01-28T09:50:08;23.33;;;20.50;;
3726;SDS011;1879;45.876;12.300;2023-01-28T09:52:39;23.80;;;19.67;;
3726;SDS011;1879;45.876;12.300;2023-01-28T09:55:11;23.47;;;20.20;;
3726;SDS011;1879;45.876;12.300;2023-01-28T09:57:44;24.43;;;20.23;;
3726;SDS011;1879;45.876;12.300;2023-01-28T10:00:17;23.03;;;19.40;;
3726;SDS011;1879;45.876;12.300;2023-01-28T10:02:54;25.80;;;20.00;;
3726;SDS011;1879;45.876;12.300;2023-01-28T10:05:34;23.77;;;18.60;;
3726;SDS011;1879;45.876;12.300;2023-01-28T10:08:18;21.07;;;17.30;;
3726;SDS011;1879;45.876;12.300;2023-01-28T10:10:55;19.77;;;16.87;;
3726;SDS011;1879;45.876;12.300;2023-01-28T10:13:30;17.37;;;15.57;;
3726;SDS011;1879;45.876;12.300;2023-01-28T10:16:10;19.30;;;16.13;;
3726;SDS011;1879;45.876;12.300;2023-01-28T10:18:43;17.93;;;15.40;;
3726;SDS011;1879;45.876;12.300;2023-01-28T10:21:16;17.90;;;15.90;;
3726;SDS011;1879;45.876;12.300;2023-01-28T10:23:56;19.63;;;14.87;;
3726;SDS011;1879;45.876;12.300;2023-01-28T10:26:29;17.00;;;14.20;;
3726;SDS011;1879;45.876;12.300;2023-01-28T10:29:02;17.50;;;15.40;;
3726;SDS011;1879;45.876;12.300;2023-01-28T10:31:38;18.50;;;16.00;;
3726;SDS011;1879;45.876;12.300;2023-01-28T10:34:09;19.30;;;16.13;;
3726;SDS011;1879;45.876;12.300;2023-01-28T10:36:36;17.93;;;15.50;;
3726;SDS011;1879;45.876;12.300;2023-01-28T10:39:04;16.43;;;14.70;;
3726;SDS011;1879;45.876;12.300;2023-01-28T10:41:33;18.73;;;15.87;;
3726;SDS011;1879;45.876;12.300;2023-01-28T10:44:00;17.63;;;15.10;;
3726;SDS011;1879;45.876;12.300;2023-01-28T10:46:27;19.87;;;16.20;;
3726;SDS011;1879;45.876;12.300;2023-01-28T10:49:01;21.53;;;16.00;;
3726;SDS011;1879;45.876;12.300;2023-01-28T10:51:34;20.23;;;15.03;;
3726;SDS011;1879;45.876;12.300;2023-01-28T10:54:02;19.93;;;15.70;;
3726;SDS011;1879;45.876;12.300;2023-01-28T10:56:44;18.10;;;14.93;;
3726;SDS011;1879;45.876;12.300;2023-01-28T10:59:19;17.30;;;14.83;;
3726;SDS011;1879;45.876;12.300;2023-01-28T11:01:48;18.00;;;14.50;;
3726;SDS011;1879;45.876;12.300;2023-01-28T11:04:21;18.47;;;14.43;;
3726;SDS011;1879;45.876;12.300;2023-01-28T11:06:54;18.40;;;16.00;;
3726;SDS011;1879;45.876;12.300;2023-01-28T11:09:23;23.23;;;17.80;;
3726;SDS011;1879;45.876;12.300;2023-01-28T11:11:51;16.37;;;14.67;;
3726;SDS011;1879;45.876;12.300;2023-01-28T11:14:19;18.50;;;15.10;;
3726;SDS011;1879;45.876;12.300;2023-01-28T11:16:51;18.30;;;14.97;;
3726;SDS011;1879;45.876;12.300;2023-01-28T11:19:21;15.40;;;13.20;;
3726;SDS011;1879;45.876;12.300;2023-01-28T11:21:56;16.63;;;14.43;;
3726;SDS011;1879;45.876;12.300;2023-01-28T11:24:25;18.07;;;14.60;;
3726;SDS011;1879;45.876;12.300;2023-01-28T11:26:54;17.73;;;15.50;;
3726;SDS011;1879;45.876;12.300;2023-01-28T11:29:24;20.30;;;15.83;;
3726;SDS011;1879;45.876;12.300;2023-01-28T11:31:55;17.87;;;15.17;;
3726;SDS011;1879;45.876;12.300;2023-01-28T11:34:26;16.20;;;13.90;;
3726;SDS011;1879;45.876;12.300;2023-01-28T11:36:59;16.83;;;13.37;;
3726;SDS011;1879;45.876;12.300;2023-01-28T11:39:29;17.50;;;14.20;;
3726;SDS011;1879;45.876;12.300;2023-01-28T11:42:09;15.90;;;14.20;;
3726;SDS011;1879;45.876;12.300;2023-01-28T11:44:38;16.53;;;12.40;;
3726;SDS011;1879;45.876;12.300;2023-01-28T11:47:12;17.37;;;13.20;;
3726;SDS011;1879;45.876;12.300;2023-01-28T11:49:55;14.07;;;12.70;;
3726;SDS011;1879;45.876;12.300;2023-01-28T11:52:39;12.60;;;11.27;;
3726;SDS011;1879;45.876;12.300;2023-01-28T11:55:21;13.20;;;12.00;;
3726;SDS011;1879;45.876;12.300;2023-01-28T11:58:03;13.40;;;12.10;;
3726;SDS011;1879;45.876;12.300;2023-01-28T12:00:37;11.83;;;10.70;;
3726;SDS011;1879;45.876;12.300;2023-01-28T12:03:22;10.90;;;9.83;;
3726;SDS011;1879;45.876;12.300;2023-01-28T12:06:13;11.27;;;10.17;;
3726;SDS011;1879;45.876;12.300;2023-01-28T12:08:53;12.47;;;11.10;;
3726;SDS011;1879;45.876;12.300;2023-01-28T12:11:27;13.03;;;11.73;;
3726;SDS011;1879;45.876;12.300;2023-01-28T12:14:21;12.60;;;11.40;;
3726;SDS011;1879;45.876;12.300;2023-01-28T12:16:56;20.30;;;16.00;;
3726;SDS011;1879;45.876;12.300;2023-01-28T12:19:40;14.40;;;13.10;;
3726;SDS011;1879;45.876;12.300;2023-01-28T12:22:22;12.67;;;11.47;;
3726;SDS011;1879;45.876;12.300;2023-01-28T12:25:14;13.10;;;11.80;;
3726;SDS011;1879;45.876;12.300;2023-01-28T12:27:50;14.50;;;13.07;;
3726;SDS011;1879;45.876;12.300;2023-01-28T12:30:27;14.23;;;12.77;;
3726;SDS011;1879;45.876;12.300;2023-01-28T12:33:11;14.83;;;13.43;;
3726;SDS011;1879;45.876;12.300;2023-01-28T12:35:58;15.80;;;14.20;;
3726;SDS011;1879;45.876;12.300;2023-01-28T12:38:38;14.00;;;12.60;;
3726;SDS011;1879;45.876;12.300;2023-01-28T12:41:14;14.77;;;13.23;;
3726;SDS011;1879;45.876;12.300;2023-01-28T12:43:48;14.33;;;12.40;;
3726;SDS011;1879;45.876;12.300;2023-01-28T12:46:23;15.40;;;13.80;;
3726;SDS011;1879;45.876;12.300;2023-01-28T12:48:59;17.17;;;13.43;;
3726;SDS011;1879;45.876;12.300;2023-01-28T12:51:32;14.07;;;12.67;;
3726;SDS011;1879;45.876;12.300;2023-01-28T12:54:05;14.97;;;13.57;;
3726;SDS011;1879;45.876;12.300;2023-01-28T12:56:37;14.43;;;13.03;;
3726;SDS011;1879;45.876;12.300;2023-01-28T12:59:09;13.10;;;11.80;;
3726;SDS011;1879;45.876;12.300;2023-01-28T13:01:40;14.30;;;13.00;;
3726;SDS011;1879;45.876;12.300;2023-01-28T13:04:13;14.00;;;12.90;;
3726;SDS011;1879;45.876;12.300;2023-01-28T13:06:46;14.00;;;12.80;;
3726;SDS011;1879;45.876;12.300;2023-01-28T13:09:19;13.20;;;12.10;;
3726;SDS011;1879;45.876;12.300;2023-01-28T13:11:48;13.80;;;12.60;;
3726;SDS011;1879;45.876;12.300;2023-01-28T13:14:18;13.90;;;12.57;;
3726;SDS011;1879;45.876;12.300;2023-01-28T13:16:49;13.50;;;12.30;;
3726;SDS011;1879;45.876;12.300;2023-01-28T13:19:21;13.57;;;12.27;;
3726;SDS011;1879;45.876;12.300;2023-01-28T13:21:49;13.63;;;12.33;;
3726;SDS011;1879;45.876;12.300;2023-01-28T13:24:22;13.80;;;12.50;;
3726;SDS011;1879;45.876;12.300;2023-01-28T13:26:57;13.47;;;12.30;;
3726;SDS011;1879;45.876;12.300;2023-01-28T13:29:36;13.00;;;11.87;;
3726;SDS011;1879;45.876;12.300;2023-01-28T13:34:56;15.23;;;12.70;;
3726;SDS011;1879;45.876;12.300;2023-01-28T13:37:27;12.80;;;11.43;;
3726;SDS011;1879;45.876;12.300;2023-01-28T13:40:00;14.17;;;12.67;;
3726;SDS011;1879;45.876;12.300;2023-01-28T13:42:33;13.53;;;12.27;;
3726;SDS011;1879;45.876;12.300;2023-01-28T13:45:20;14.10;;;12.67;;
3726;SDS011;1879;45.876;12.300;2023-01-28T13:47:49;12.97;;;11.87;;
3726;SDS011;1879;45.876;12.300;2023-01-28T13:50:20;15.23;;;13.10;;
3726;SDS011;1879;45.876;12.300;2023-01-28T13:52:52;14.43;;;12.90;;
3726;SDS011;1879;45.876;12.300;2023-01-28T13:55:25;13.33;;;12.13;;
3726;SDS011;1879;45.876;12.300;2023-01-28T14:01:04;12.13;;;10.87;;
3726;SDS011;1879;45.876;12.300;2023-01-28T14:04:02;12.27;;;11.13;;
3726;SDS011;1879;45.876;12.300;2023-01-28T14:07:16;12.13;;;11.03;;
3726;SDS011;1879;45.876;12.300;2023-01-28T14:10:13;11.93;;;10.93;;
3726;SDS011;1879;45.876;12.300;2023-01-28T14:12:59;13.13;;;11.80;;
3726;SDS011;1879;45.876;12.300;2023-01-28T14:15:53;12.40;;;11.33;;
3726;SDS011;1879;45.876;12.300;2023-01-28T14:18:25;13.70;;;12.50;;
3726;SDS011;1879;45.876;12.300;2023-01-28T14:20:54;13.63;;;12.37;;
3726;SDS011;1879;45.876;12.300;2023-01-28T14:23:25;14.40;;;13.10;;
3726;SDS011;1879;45.876;12.300;2023-01-28T14:26:07;13.37;;;12.17;;
3726;SDS011;1879;45.876;12.300;2023-01-28T14:28:47;14.67;;;13.33;;
3726;SDS011;1879;45.876;12.300;2023-01-28T14:31:23;14.10;;;12.80;;
3726;SDS011;1879;45.876;12.300;2023-01-28T14:33:55;13.83;;;12.43;;
3726;SDS011;1879;45.876;12.300;2023-01-28T14:36:29;13.50;;;12.23;;
3726;SDS011;1879;45.876;12.300;2023-01-28T14:38:57;12.90;;;11.60;;
3726;SDS011;1879;45.876;12.300;2023-01-28T14:41:25;13.10;;;11.70;;
3726;SDS011;1879;45.876;12.300;2023-01-28T14:43:55;13.97;;;11.93;;
3726;SDS011;1879;45.876;12.300;2023-01-28T14:46:27;14.60;;;13.10;;
3726;SDS011;1879;45.876;12.300;2023-01-28T14:49:06;15.30;;;13.77;;
3726;SDS011;1879;45.876;12.300;2023-01-28T14:51:56;14.30;;;12.90;;
3726;SDS011;1879;45.876;12.300;2023-01-28T14:54:51;13.93;;;12.53;;
3726;SDS011;1879;45.876;12.300;2023-01-28T14:57:38;13.63;;;12.30;;
3726;SDS011;1879;45.876;12.300;2023-01-28T15:00:20;13.83;;;12.20;;
3726;SDS011;1879;45.876;12.300;2023-01-28T15:02:49;13.80;;;12.50;;
3726;SDS011;1879;45.876;12.300;2023-01-28T15:05:16;13.07;;;11.80;;
3726;SDS011;1879;45.876;12.300;2023-01-28T15:07:48;12.10;;;11.00;;